sensor_id;sensor_type;location;lat;lon;timestamp;pressure;altitude;pressure_sealevel;temperature;humidity
21824;BME280;11074;48.596;9.238;2023-02-15T00:01:49;99595.72;;;3.99;73.18
21824;BME280;11074;48.596;9.238;2023-02-15T00:04:19;99591.78;;;3.95;74.17
21824;BME280;11074;48.596;9.238;2023-02-15T00:06:46;99585.19;;;3.91;75.17
21824;BME280;11074;48.596;9.238;2023-02-15T00:09:12;99585.19;;;3.91;74.87
21824;BME280;11074;48.596;9.238;2023-02-15T00:11:38;99577.59;;;3.88;74.06
21824;BME280;11074;48.596;9.238;2023-02-15T00:14:22;99577.59;;;3.88;75.78
21824;BME280;11074;48.596;9.238;2023-02-15T00:16:51;99570.00;;;3.85;73.54
21824;BME280;11074;48.596;9.238;2023-02-15T00:19:19;99577.13;;;3.84;73.68
21824;BME280;11074;48.596;9.238;2023-02-15T00:21:46;99572.66;;;3.85;75.83
21824;BME280;11074;48.596;9.238;2023-02-15T00:24:16;99576.63;;;3.81;75.97
21824;BME280;11074;48.596;9.238;2023-02-15T00:26:43;99573.53;;;3.77;74.63
21824;BME280;11074;48.596;9.238;2023-02-15T00:29:11;99568.69;;;3.81;75.70
21824;BME280;11074;48.596;9.238;2023-02-15T00:31:37;99567.41;;;3.77;75.69
21824;BME280;11074;48.596;9.238;2023-02-15T00:34:18;99571.53;;;3.79;75.80
21824;BME280;11074;48.596;9.238;2023-02-15T00:36:44;99561.50;;;3.75;75.13
21824;BME280;11074;48.596;9.238;2023-02-15T00:39:11;99563.47;;;3.73;76.04
21824;BME280;11074;48.596;9.238;2023-02-15T00:41:37;99570.75;;;3.71;75.95
21824;BME280;11074;48.596;9.238;2023-02-15T00:44:04;99564.00;;;3.68;76.34
21824;BME280;11074;48.596;9.238;2023-02-15T00:46:30;99560.69;;;3.66;76.04
21824;BME280;11074;48.596;9.238;2023-02-15T00:48:56;99563.16;;;3.67;76.49
21824;BME280;11074;48.596;9.238;2023-02-15T00:51:22;99562.38;;;3.67;76.83
21824;BME280;11074;48.596;9.238;2023-02-15T00:53:48;99549.63;;;3.62;75.73
21824;BME280;11074;48.596;9.238;2023-02-15T00:56:14;99552.13;;;3.64;75.70
21824;BME280;11074;48.596;9.238;2023-02-15T00:58:40;99557.41;;;3.64;76.02
21824;BME280;11074;48.596;9.238;2023-02-15T01:01:13;99555.28;;;3.59;76.45
21824;BME280;11074;48.596;9.238;2023-02-15T01:03:40;99565.84;;;3.59;76.99
21824;BME280;11074;48.596;9.238;2023-02-15T01:06:07;99554.81;;;3.56;76.65
21824;BME280;11074;48.596;9.238;2023-02-15T01:08:33;99560.09;;;3.56;75.82
21824;BME280;11074;48.596;9.238;2023-02-15T01:11:16;99544.28;;;3.48;74.60
21824;BME280;11074;48.596;9.238;2023-02-15T01:13:52;99560.59;;;3.51;76.01
21824;BME280;11074;48.596;9.238;2023-02-15T01:16:19;99558.31;;;3.48;76.93
21824;BME280;11074;48.596;9.238;2023-02-15T01:18:45;99555.19;;;3.45;74.30
21824;BME280;11074;48.596;9.238;2023-02-15T01:21:15;99552.53;;;3.45;73.86
21824;BME280;11074;48.596;9.238;2023-02-15T01:23:42;99556.50;;;3.41;73.71
21824;BME280;11074;48.596;9.238;2023-02-15T01:26:09;99559.16;;;3.41;73.12
21824;BME280;11074;48.596;9.238;2023-02-15T01:28:34;99560.31;;;3.38;72.11
21824;BME280;11074;48.596;9.238;2023-02-15T01:31:09;99563.97;;;3.37;72.03
21824;BME280;11074;48.596;9.238;2023-02-15T01:33:36;99567.00;;;3.26;73.14
21824;BME280;11074;48.596;9.238;2023-02-15T01:36:03;99559.75;;;3.20;74.08
21824;BME280;11074;48.596;9.238;2023-02-15T01:38:29;99559.06;;;3.26;74.98
21824;BME280;11074;48.596;9.238;2023-02-15T01:40:55;99559.91;;;3.27;72.51
21824;BME280;11074;48.596;9.238;2023-02-15T01:46:19;99555.59;;;3.26;72.62
21824;BME280;11074;48.596;9.238;2023-02-15T01:48:55;99558.75;;;3.21;72.97
21824;BME280;11074;48.596;9.238;2023-02-15T01:51:26;99552.00;;;3.19;72.59
21824;BME280;11074;48.596;9.238;2023-02-15T01:54:05;99545.41;;;3.15;72.51
21824;BME280;11074;48.596;9.238;2023-02-15T01:56:36;99547.06;;;3.16;72.03
21824;BME280;11074;48.596;9.238;2023-02-15T01:59:19;99551.34;;;3.17;71.86
21824;BME280;11074;48.596;9.238;2023-02-15T02:01:46;99548.38;;;3.12;73.53
21824;BME280;11074;48.596;9.238;2023-02-15T02:05:12;99549.19;;;3.12;72.51
21824;BME280;11074;48.596;9.238;2023-02-15T02:07:42;99549.72;;;3.08;72.95
21824;BME280;11074;48.596;9.238;2023-02-15T02:10:15;99544.16;;;2.94;74.33
21824;BME280;11074;48.596;9.238;2023-02-15T02:12:45;99546.78;;;2.94;73.89
21824;BME280;11074;48.596;9.238;2023-02-15T02:15:13;99542.34;;;2.95;74.37
21824;BME280;11074;48.596;9.238;2023-02-15T02:18:45;99537.53;;;2.98;72.32
21824;BME280;11074;48.596;9.238;2023-02-15T02:25:04;99535.91;;;2.97;72.23
21824;BME280;11074;48.596;9.238;2023-02-15T02:27:47;99524.22;;;2.84;73.00
21824;BME280;11074;48.596;9.238;2023-02-15T02:31:03;99528.16;;;2.88;76.20
21824;BME280;11074;48.596;9.238;2023-02-15T02:34:25;99530.31;;;2.84;73.74
21824;BME280;11074;48.596;9.238;2023-02-15T02:44:29;99528.66;;;2.83;74.61
21824;BME280;11074;48.596;9.238;2023-02-15T02:47:13;99530.31;;;2.84;75.20
21824;BME280;11074;48.596;9.238;2023-02-15T02:49:43;99527.00;;;2.82;73.58
21824;BME280;11074;48.596;9.238;2023-02-15T02:52:42;99511.69;;;2.78;72.97
21824;BME280;11074;48.596;9.238;2023-02-15T02:55:30;99519.25;;;2.81;72.94
21824;BME280;11074;48.596;9.238;2023-02-15T02:58:20;99521.25;;;2.79;74.41
21824;BME280;11074;48.596;9.238;2023-02-15T03:01:22;99518.13;;;2.75;74.19
21824;BME280;11074;48.596;9.238;2023-02-15T03:03:56;99518.63;;;2.71;74.77
21824;BME280;11074;48.596;9.238;2023-02-15T03:06:33;99520.44;;;2.70;76.10
21824;BME280;11074;48.596;9.238;2023-02-15T03:09:12;99521.94;;;2.73;75.76
21824;BME280;11074;48.596;9.238;2023-02-15T03:11:48;99517.63;;;2.72;75.62
21824;BME280;11074;48.596;9.238;2023-02-15T03:14:17;99516.97;;;2.70;75.75
21824;BME280;11074;48.596;9.238;2023-02-15T03:16:48;99515.66;;;2.74;74.05
21824;BME280;11074;48.596;9.238;2023-02-15T03:19:27;99513.03;;;2.66;74.44
21824;BME280;11074;48.596;9.238;2023-02-15T03:22:00;99513.69;;;2.68;75.25
21824;BME280;11074;48.596;9.238;2023-02-15T03:24:53;99507.09;;;2.64;75.08
21824;BME280;11074;48.596;9.238;2023-02-15T03:27:26;99519.31;;;2.65;75.73
21824;BME280;11074;48.596;9.238;2023-02-15T03:29:57;99520.97;;;2.58;75.63
21824;BME280;11074;48.596;9.238;2023-02-15T03:32:28;99511.56;;;2.55;76.00
21824;BME280;11074;48.596;9.238;2023-02-15T03:34:57;99516.03;;;2.55;75.51
21824;BME280;11074;48.596;9.238;2023-02-15T03:37:37;99510.75;;;2.55;73.79
21824;BME280;11074;48.596;9.238;2023-02-15T03:40:31;99511.72;;;2.54;73.51
21824;BME280;11074;48.596;9.238;2023-02-15T03:44:00;99507.47;;;2.53;75.32
21824;BME280;11074;48.596;9.238;2023-02-15T03:47:13;99509.41;;;2.51;73.56
21824;BME280;11074;48.596;9.238;2023-02-15T03:50:01;99515.38;;;2.44;73.60
21824;BME280;11074;48.596;9.238;2023-02-15T03:52:31;99511.59;;;2.23;74.75
21824;BME280;11074;48.596;9.238;2023-02-15T03:54:59;99513.09;;;2.17;75.52
21824;BME280;11074;48.596;9.238;2023-02-15T03:57:28;99512.09;;;1.94;76.18
21824;BME280;11074;48.596;9.238;2023-02-15T04:05:43;99512.75;;;2.20;74.21
21824;BME280;11074;48.596;9.238;2023-02-15T04:08:10;99508.47;;;2.27;73.31
21824;BME280;11074;48.596;9.238;2023-02-15T04:10:36;99509.28;;;2.28;73.70
21824;BME280;11074;48.596;9.238;2023-02-15T04:13:31;99503.19;;;2.19;74.35
21824;BME280;11074;48.596;9.238;2023-02-15T04:15:57;99500.06;;;2.24;75.38
21824;BME280;11074;48.596;9.238;2023-02-15T04:18:40;99509.94;;;2.22;73.72
21824;BME280;11074;48.596;9.238;2023-02-15T04:21:29;99497.91;;;2.19;73.03
21824;BME280;11074;48.596;9.238;2023-02-15T04:24:14;99497.78;;;2.21;72.88
21824;BME280;11074;48.596;9.238;2023-02-15T04:26:59;99502.69;;;2.08;74.26
21824;BME280;11074;48.596;9.238;2023-02-15T04:29:26;99507.50;;;2.12;75.96
21824;BME280;11074;48.596;9.238;2023-02-15T04:31:55;99507.31;;;2.14;73.70
21824;BME280;11074;48.596;9.238;2023-02-15T04:34:21;99507.97;;;2.16;73.15
21824;BME280;11074;48.596;9.238;2023-02-15T04:36:46;99509.13;;;2.13;73.60
21824;BME280;11074;48.596;9.238;2023-02-15T04:39:13;99506.34;;;2.15;73.59
21824;BME280;11074;48.596;9.238;2023-02-15T04:41:40;99504.03;;;2.12;73.34
21824;BME280;11074;48.596;9.238;2023-02-15T04:44:06;99507.00;;;2.17;72.88
21824;BME280;11074;48.596;9.238;2023-02-15T04:46:31;99509.13;;;2.13;73.44
21824;BME280;11074;48.596;9.238;2023-02-15T04:48:57;99505.00;;;2.11;74.79
21824;BME280;11074;48.596;9.238;2023-02-15T04:51:24;99511.09;;;2.11;74.91
21824;BME280;11074;48.596;9.238;2023-02-15T04:53:50;99500.56;;;2.11;74.24
21824;BME280;11074;48.596;9.238;2023-02-15T04:56:19;99495.47;;;2.02;73.27
21824;BME280;11074;48.596;9.238;2023-02-15T04:58:45;99491.16;;;1.93;73.29
21824;BME280;11074;48.596;9.238;2023-02-15T05:01:11;99488.03;;;1.89;73.90
21824;BME280;11074;48.596;9.238;2023-02-15T05:03:36;99487.22;;;1.97;74.59
21824;BME280;11074;48.596;9.238;2023-02-15T05:06:04;99483.59;;;1.98;72.33
21824;BME280;11074;48.596;9.238;2023-02-15T05:08:30;99470.25;;;1.99;72.14
21824;BME280;11074;48.596;9.238;2023-02-15T05:10:56;99477.16;;;2.00;72.86
21824;BME280;11074;48.596;9.238;2023-02-15T05:13:24;99480.63;;;2.01;72.74
21824;BME280;11074;48.596;9.238;2023-02-15T05:15:53;99484.59;;;1.97;73.57
21824;BME280;11074;48.596;9.238;2023-02-15T05:18:21;99486.22;;;1.98;73.14
21824;BME280;11074;48.596;9.238;2023-02-15T05:20:48;99486.22;;;1.98;72.43
21824;BME280;11074;48.596;9.238;2023-02-15T05:23:14;99492.66;;;1.95;73.76
21824;BME280;11074;48.596;9.238;2023-02-15T05:25:40;99494.44;;;1.95;73.69
21824;BME280;11074;48.596;9.238;2023-02-15T05:28:27;99492.97;;;1.92;73.17
21824;BME280;11074;48.596;9.238;2023-02-15T05:31:19;99489.69;;;1.90;72.35
21824;BME280;11074;48.596;9.238;2023-02-15T05:33:44;99500.56;;;1.87;71.96
21824;BME280;11074;48.596;9.238;2023-02-15T05:36:11;99498.75;;;1.88;71.46
21824;BME280;11074;48.596;9.238;2023-02-15T05:38:37;99486.06;;;1.83;71.80
21824;BME280;11074;48.596;9.238;2023-02-15T05:41:08;99489.53;;;1.83;72.93
21824;BME280;11074;48.596;9.238;2023-02-15T05:43:35;99492.31;;;1.82;73.06
21824;BME280;11074;48.596;9.238;2023-02-15T05:46:02;99491.16;;;1.84;72.50
21824;BME280;11074;48.596;9.238;2023-02-15T05:48:28;99491.34;;;1.83;73.59
21824;BME280;11074;48.596;9.238;2023-02-15T05:51:05;99492.31;;;1.82;72.58
21824;BME280;11074;48.596;9.238;2023-02-15T05:53:34;99493.28;;;1.81;72.16
21824;BME280;11074;48.596;9.238;2023-02-15T05:56:01;99494.28;;;1.80;71.78
21824;BME280;11074;48.596;9.238;2023-02-15T05:58:35;99490.66;;;1.81;73.65
21824;BME280;11074;48.596;9.238;2023-02-15T06:01:21;99502.19;;;1.80;73.73
21824;BME280;11074;48.596;9.238;2023-02-15T06:03:48;99499.88;;;1.77;74.86
21824;BME280;11074;48.596;9.238;2023-02-15T06:06:15;99497.06;;;1.78;74.83
21824;BME280;11074;48.596;9.238;2023-02-15T06:08:41;99497.44;;;1.75;74.10
21824;BME280;11074;48.596;9.238;2023-02-15T06:11:07;99493.31;;;1.73;72.80
21824;BME280;11074;48.596;9.238;2023-02-15T06:13:34;99494.44;;;1.70;73.08
21824;BME280;11074;48.596;9.238;2023-02-15T06:16:00;99498.72;;;1.71;71.66
21824;BME280;11074;48.596;9.238;2023-02-15T06:18:25;99506.50;;;1.73;72.48
21824;BME280;11074;48.596;9.238;2023-02-15T06:20:51;99502.50;;;1.69;72.01
21824;BME280;11074;48.596;9.238;2023-02-15T06:23:17;99515.50;;;1.70;72.82
21824;BME280;11074;48.596;9.238;2023-02-15T06:25:45;99516.00;;;1.58;73.02
21824;BME280;11074;48.596;9.238;2023-02-15T06:28:11;99520.91;;;1.53;74.38
21824;BME280;11074;48.596;9.238;2023-02-15T06:30:37;99512.69;;;1.56;74.00
21824;BME280;11074;48.596;9.238;2023-02-15T06:33:03;99521.91;;;1.60;73.38
21824;BME280;11074;48.596;9.238;2023-02-15T06:35:28;99523.91;;;1.66;73.14
21824;BME280;11074;48.596;9.238;2023-02-15T06:37:54;99522.41;;;1.55;74.85
21824;BME280;11074;48.596;9.238;2023-02-15T06:40:20;99536.56;;;1.62;74.91
21824;BME280;11074;48.596;9.238;2023-02-15T06:42:46;99535.44;;;1.57;73.07
21824;BME280;11074;48.596;9.238;2023-02-15T06:45:12;99531.16;;;1.56;72.27
21824;BME280;11074;48.596;9.238;2023-02-15T06:47:38;99537.91;;;1.58;73.75
21824;BME280;11074;48.596;9.238;2023-02-15T06:50:05;99533.47;;;1.59;73.50
21824;BME280;11074;48.596;9.238;2023-02-15T06:52:31;99522.59;;;1.54;73.92
21824;BME280;11074;48.596;9.238;2023-02-15T06:54:57;99529.69;;;1.61;73.37
21824;BME280;11074;48.596;9.238;2023-02-15T06:57:23;99532.13;;;1.55;73.38
21824;BME280;11074;48.596;9.238;2023-02-15T06:59:48;99526.53;;;1.58;72.90
21824;BME280;11074;48.596;9.238;2023-02-15T07:02:14;99530.00;;;1.58;72.59
21824;BME280;11074;48.596;9.238;2023-02-15T07:04:41;99538.72;;;1.59;73.73
21824;BME280;11074;48.596;9.238;2023-02-15T07:07:11;99537.25;;;1.56;73.23
21824;BME280;11074;48.596;9.238;2023-02-15T07:09:38;99543.16;;;1.58;72.57
21824;BME280;11074;48.596;9.238;2023-02-15T07:12:05;99536.41;;;1.56;73.10
21824;BME280;11074;48.596;9.238;2023-02-15T07:14:51;99536.09;;;1.59;73.15
21824;BME280;11074;48.596;9.238;2023-02-15T07:17:17;99538.72;;;1.59;73.93
21824;BME280;11074;48.596;9.238;2023-02-15T07:19:43;99534.13;;;1.61;74.18
21824;BME280;11074;48.596;9.238;2023-02-15T07:22:09;99535.44;;;1.57;74.41
21824;BME280;11074;48.596;9.238;2023-02-15T07:24:34;99541.19;;;1.60;74.57
21824;BME280;11074;48.596;9.238;2023-02-15T07:27:00;99538.41;;;1.62;75.47
21824;BME280;11074;48.596;9.238;2023-02-15T07:29:26;99547.13;;;1.62;75.01
21824;BME280;11074;48.596;9.238;2023-02-15T07:31:51;99543.84;;;1.68;74.13
21824;BME280;11074;48.596;9.238;2023-02-15T07:34:17;99541.41;;;1.75;74.99
21824;BME280;11074;48.596;9.238;2023-02-15T07:36:43;99541.09;;;1.78;74.47
21824;BME280;11074;48.596;9.238;2023-02-15T07:39:12;99538.28;;;1.79;74.87
21824;BME280;11074;48.596;9.238;2023-02-15T07:41:38;99533.19;;;1.78;75.46
21824;BME280;11074;48.596;9.238;2023-02-15T07:44:04;99527.72;;;1.79;76.03
21824;BME280;11074;48.596;9.238;2023-02-15T07:46:29;99513.38;;;1.74;76.10
21824;BME280;11074;48.596;9.238;2023-02-15T07:48:55;99524.78;;;1.82;76.26
21824;BME280;11074;48.596;9.238;2023-02-15T07:51:21;99520.81;;;1.87;75.48
21824;BME280;11074;48.596;9.238;2023-02-15T07:53:47;99515.22;;;1.90;76.21
21824;BME280;11074;48.596;9.238;2023-02-15T07:56:14;99512.44;;;1.91;75.93
21824;BME280;11074;48.596;9.238;2023-02-15T07:58:40;99514.75;;;1.94;75.19
21824;BME280;11074;48.596;9.238;2023-02-15T08:01:30;99514.38;;;1.97;75.58
21824;BME280;11074;48.596;9.238;2023-02-15T08:03:57;99512.91;;;2.03;76.64
21824;BME280;11074;48.596;9.238;2023-02-15T08:06:26;99518.88;;;2.05;76.77
21824;BME280;11074;48.596;9.238;2023-02-15T08:08:52;99518.88;;;2.05;76.34
21824;BME280;11074;48.596;9.238;2023-02-15T08:11:25;99506.47;;;2.05;76.85
21824;BME280;11074;48.596;9.238;2023-02-15T08:14:30;99509.63;;;2.09;77.46
21824;BME280;11074;48.596;9.238;2023-02-15T08:16:59;99502.38;;;2.11;77.45
21824;BME280;11074;48.596;9.238;2023-02-15T08:19:31;99510.47;;;2.09;77.16
21824;BME280;11074;48.596;9.238;2023-02-15T08:22:04;99502.03;;;2.14;77.76
21824;BME280;11074;48.596;9.238;2023-02-15T08:24:34;99513.59;;;2.21;77.54
21824;BME280;11074;48.596;9.238;2023-02-15T08:27:02;99506.97;;;2.25;77.73
21824;BME280;11074;48.596;9.238;2023-02-15T08:29:31;99505.19;;;2.25;78.31
21824;BME280;11074;48.596;9.238;2023-02-15T08:32:01;99513.91;;;2.34;78.14
21824;BME280;11074;48.596;9.238;2023-02-15T08:34:31;99504.50;;;2.39;78.06
21824;BME280;11074;48.596;9.238;2023-02-15T08:36:57;99504.97;;;2.43;78.45
21824;BME280;11074;48.596;9.238;2023-02-15T08:39:23;99505.16;;;2.50;77.68
21824;BME280;11074;48.596;9.238;2023-02-15T08:41:48;99495.06;;;2.53;77.83
21824;BME280;11074;48.596;9.238;2023-02-15T08:44:17;99501.16;;;2.62;77.87
21824;BME280;11074;48.596;9.238;2023-02-15T08:46:45;99495.53;;;2.65;77.89
21824;BME280;11074;48.596;9.238;2023-02-15T08:49:19;99495.22;;;2.68;77.90
21824;BME280;11074;48.596;9.238;2023-02-15T08:51:45;99495.34;;;2.74;78.20
21824;BME280;11074;48.596;9.238;2023-02-15T08:54:18;99493.84;;;2.80;78.22
21824;BME280;11074;48.596;9.238;2023-02-15T08:56:45;99483.78;;;2.83;78.48
21824;BME280;11074;48.596;9.238;2023-02-15T08:59:16;99489.84;;;2.92;78.10
21824;BME280;11074;48.596;9.238;2023-02-15T09:01:42;99499.91;;;2.96;77.90
21824;BME280;11074;48.596;9.238;2023-02-15T09:04:09;99498.59;;;3.00;78.63
21824;BME280;11074;48.596;9.238;2023-02-15T09:06:37;99489.16;;;3.06;78.48
21824;BME280;11074;48.596;9.238;2023-02-15T09:09:03;99486.81;;;3.11;79.03
21824;BME280;11074;48.596;9.238;2023-02-15T09:11:34;99483.78;;;3.22;78.45
21824;BME280;11074;48.596;9.238;2023-02-15T09:14:07;99487.19;;;3.31;78.59
21824;BME280;11074;48.596;9.238;2023-02-15T09:16:35;99487.34;;;3.37;77.69
21824;BME280;11074;48.596;9.238;2023-02-15T09:19:02;99491.91;;;3.43;77.20
21824;BME280;11074;48.596;9.238;2023-02-15T09:21:30;99475.38;;;3.49;77.78
21824;BME280;11074;48.596;9.238;2023-02-15T09:24:04;99467.72;;;3.54;76.77
21824;BME280;11074;48.596;9.238;2023-02-15T09:26:34;99462.75;;;3.59;76.77
21824;BME280;11074;48.596;9.238;2023-02-15T09:29:02;99467.53;;;3.64;78.37
21824;BME280;11074;48.596;9.238;2023-02-15T09:31:37;99462.03;;;3.65;77.46
21824;BME280;11074;48.596;9.238;2023-02-15T09:34:03;99460.34;;;3.73;77.44
21824;BME280;11074;48.596;9.238;2023-02-15T09:36:35;99467.56;;;3.79;78.16
21824;BME280;11074;48.596;9.238;2023-02-15T09:39:22;99462.56;;;3.84;77.83
21824;BME280;11074;48.596;9.238;2023-02-15T09:42:39;99454.94;;;3.89;79.50
21824;BME280;11074;48.596;9.238;2023-02-15T09:45:39;99457.06;;;3.93;78.61
21824;BME280;11074;48.596;9.238;2023-02-15T09:48:21;99451.41;;;3.96;80.06
21824;BME280;11074;48.596;9.238;2023-02-15T09:51:24;99458.97;;;3.99;79.98
21824;BME280;11074;48.596;9.238;2023-02-15T09:57:19;99442.31;;;4.13;79.08
21824;BME280;11074;48.596;9.238;2023-02-15T10:00:29;99439.59;;;4.21;79.26
21824;BME280;11074;48.596;9.238;2023-02-15T10:16:26;99436.00;;;4.52;78.20
21824;BME280;11074;48.596;9.238;2023-02-15T10:28:05;99421.66;;;4.75;78.41
21824;BME280;11074;48.596;9.238;2023-02-15T10:30:47;99426.03;;;4.83;78.09
21824;BME280;11074;48.596;9.238;2023-02-15T10:33:41;99414.88;;;4.87;77.07
21824;BME280;11074;48.596;9.238;2023-02-15T10:42:02;99398.91;;;5.17;77.15
21824;BME280;11074;48.596;9.238;2023-02-15T10:50:51;99395.09;;;5.40;75.95
21824;BME280;11074;48.596;9.238;2023-02-15T11:02:46;99364.84;;;5.77;74.26
21824;BME280;11074;48.596;9.238;2023-02-15T11:08:32;99368.03;;;5.94;73.07
21824;BME280;11074;48.596;9.238;2023-02-15T11:11:06;99360.31;;;5.99;72.96
21824;BME280;11074;48.596;9.238;2023-02-15T11:13:40;99352.88;;;6.09;73.10
21824;BME280;11074;48.596;9.238;2023-02-15T11:16:21;99348.78;;;6.13;72.27
21824;BME280;11074;48.596;9.238;2023-02-15T11:18:56;99354.63;;;6.30;71.85
21824;BME280;11074;48.596;9.238;2023-02-15T11:21:36;99341.63;;;6.41;72.16
21824;BME280;11074;48.596;9.238;2023-02-15T11:24:17;99340.47;;;6.57;71.65
21824;BME280;11074;48.596;9.238;2023-02-15T11:27:12;99331.91;;;6.68;70.61
21824;BME280;11074;48.596;9.238;2023-02-15T11:29:59;99334.00;;;6.79;70.42
21824;BME280;11074;48.596;9.238;2023-02-15T11:32:43;99328.34;;;6.89;69.82
21824;BME280;11074;48.596;9.238;2023-02-15T11:40:46;99324.34;;;7.25;68.25
21824;BME280;11074;48.596;9.238;2023-02-15T11:43:35;99310.44;;;7.37;68.84
21824;BME280;11074;48.596;9.238;2023-02-15T11:46:04;99315.97;;;7.55;68.29
21824;BME280;11074;48.596;9.238;2023-02-15T11:48:32;99310.88;;;7.66;68.25
21824;BME280;11074;48.596;9.238;2023-02-15T11:50:59;99302.06;;;7.79;68.45
21824;BME280;11074;48.596;9.238;2023-02-15T11:53:32;99295.50;;;7.94;67.44
21824;BME280;11074;48.596;9.238;2023-02-15T11:56:00;99302.81;;;8.12;67.44
21824;BME280;11074;48.596;9.238;2023-02-15T11:58:37;99303.00;;;8.30;67.93
21824;BME280;11074;48.596;9.238;2023-02-15T12:01:30;99304.38;;;8.52;67.08
21824;BME280;11074;48.596;9.238;2023-02-15T12:04:22;99301.59;;;8.79;66.73
21824;BME280;11074;48.596;9.238;2023-02-15T12:10:13;99299.59;;;9.05;64.87
21824;BME280;11074;48.596;9.238;2023-02-15T12:12:42;99298.72;;;9.18;64.56
21824;BME280;11074;48.596;9.238;2023-02-15T12:15:10;99296.56;;;9.33;64.86
21824;BME280;11074;48.596;9.238;2023-02-15T12:17:53;99298.38;;;9.39;64.46
21824;BME280;11074;48.596;9.238;2023-02-15T12:20:31;99290.59;;;9.62;64.09
21824;BME280;11074;48.596;9.238;2023-02-15T12:23:06;99291.34;;;9.69;63.14
21824;BME280;11074;48.596;9.238;2023-02-15T12:25:42;99290.63;;;9.81;63.36
21824;BME280;11074;48.596;9.238;2023-02-15T12:28:36;99286.75;;;10.01;61.83
21824;BME280;11074;48.596;9.238;2023-02-15T12:31:09;99280.78;;;10.24;60.04
21824;BME280;11074;48.596;9.238;2023-02-15T12:33:41;99275.88;;;10.39;60.28
21824;BME280;11074;48.596;9.238;2023-02-15T12:36:42;99273.88;;;10.53;59.85
21824;BME280;11074;48.596;9.238;2023-02-15T12:41:46;99266.03;;;10.87;57.63
21824;BME280;11074;48.596;9.238;2023-02-15T12:44:24;99262.91;;;11.02;55.81
21824;BME280;11074;48.596;9.238;2023-02-15T12:47:04;99264.25;;;11.11;55.64
21824;BME280;11074;48.596;9.238;2023-02-15T12:49:33;99259.72;;;11.23;54.99
21824;BME280;11074;48.596;9.238;2023-02-15T12:54:49;99249.88;;;11.47;54.19
21824;BME280;11074;48.596;9.238;2023-02-15T12:57:28;99243.47;;;11.48;54.42
21824;BME280;11074;48.596;9.238;2023-02-15T13:00:26;99249.69;;;11.72;53.53
21824;BME280;11074;48.596;9.238;2023-02-15T13:02:55;99244.34;;;11.83;54.20
21824;BME280;11074;48.596;9.238;2023-02-15T13:05:25;99250.03;;;11.98;53.21
21824;BME280;11074;48.596;9.238;2023-02-15T13:08:14;99244.22;;;12.01;53.74
21824;BME280;11074;48.596;9.238;2023-02-15T13:11:08;99238.16;;;12.06;53.73
21824;BME280;11074;48.596;9.238;2023-02-15T13:13:51;99238.97;;;12.06;53.89
21824;BME280;11074;48.596;9.238;2023-02-15T13:16:29;99235.56;;;12.11;53.83
21824;BME280;11074;48.596;9.238;2023-02-15T13:18:58;99229.16;;;12.24;53.18
21824;BME280;11074;48.596;9.238;2023-02-15T13:21:35;99223.28;;;12.38;53.86
21824;BME280;11074;48.596;9.238;2023-02-15T13:24:24;99223.38;;;12.43;52.83
21824;BME280;11074;48.596;9.238;2023-02-15T13:26:56;99212.06;;;12.53;52.87
21824;BME280;11074;48.596;9.238;2023-02-15T13:29:27;99205.16;;;12.57;53.76
21824;BME280;11074;48.596;9.238;2023-02-15T13:31:55;99204.19;;;12.63;53.31
21824;BME280;11074;48.596;9.238;2023-02-15T13:34:25;99206.13;;;12.79;52.77
21824;BME280;11074;48.596;9.238;2023-02-15T13:40:29;99203.28;;;13.14;53.14
21824;BME280;11074;48.596;9.238;2023-02-15T13:43:35;99201.66;;;13.29;52.71
21824;BME280;11074;48.596;9.238;2023-02-15T13:46:33;99196.63;;;13.33;52.48
21824;BME280;11074;48.596;9.238;2023-02-15T13:49:17;99194.00;;;13.38;52.44
21824;BME280;11074;48.596;9.238;2023-02-15T14:01:28;99186.44;;;13.90;50.90
21824;BME280;11074;48.596;9.238;2023-02-15T14:07:43;99175.50;;;14.62;49.54
21824;BME280;11074;48.596;9.238;2023-02-15T14:13:46;99173.13;;;15.50;47.77
21824;BME280;11074;48.596;9.238;2023-02-15T14:16:45;99169.84;;;16.47;46.93
21824;BME280;11074;48.596;9.238;2023-02-15T14:19:40;99166.72;;;16.90;50.02
21824;BME280;11074;48.596;9.238;2023-02-15T14:22:28;99164.03;;;17.21;44.81
21824;BME280;11074;48.596;9.238;2023-02-15T14:28:07;99157.88;;;18.30;43.63
21824;BME280;11074;48.596;9.238;2023-02-15T14:30:39;99162.28;;;18.74;43.46
21824;BME280;11074;48.596;9.238;2023-02-15T14:33:31;99153.97;;;19.00;41.56
21824;BME280;11074;48.596;9.238;2023-02-15T14:36:00;99151.25;;;19.33;39.81
21824;BME280;11074;48.596;9.238;2023-02-15T14:41:13;99153.94;;;19.67;35.99
21824;BME280;11074;48.596;9.238;2023-02-15T14:46:52;99157.78;;;19.66;38.31
21824;BME280;11074;48.596;9.238;2023-02-15T14:49:32;99154.44;;;19.74;37.40
21824;BME280;11074;48.596;9.238;2023-02-15T14:52:09;99148.91;;;19.84;35.62
21824;BME280;11074;48.596;9.238;2023-02-15T15:00:00;99159.72;;;19.27;36.73
21824;BME280;11074;48.596;9.238;2023-02-15T15:02:52;99153.47;;;18.93;41.43
21824;BME280;11074;48.596;9.238;2023-02-15T15:05:33;99163.56;;;18.82;36.51
21824;BME280;11074;48.596;9.238;2023-02-15T15:08:03;99161.22;;;18.70;36.79
21824;BME280;11074;48.596;9.238;2023-02-15T15:19:02;99163.03;;;18.26;40.17
21824;BME280;11074;48.596;9.238;2023-02-15T15:27:44;99156.19;;;17.39;38.57
21824;BME280;11074;48.596;9.238;2023-02-15T15:47:10;99153.38;;;14.54;44.68
21824;BME280;11074;48.596;9.238;2023-02-15T15:49:39;99170.81;;;13.87;45.51
21824;BME280;11074;48.596;9.238;2023-02-15T15:52:20;99167.44;;;13.58;46.70
21824;BME280;11074;48.596;9.238;2023-02-15T15:54:52;99162.53;;;12.89;47.71
21824;BME280;11074;48.596;9.238;2023-02-15T15:57:37;99166.72;;;12.11;50.21
21824;BME280;11074;48.596;9.238;2023-02-15T16:02:53;99168.16;;;11.79;52.69
21824;BME280;11074;48.596;9.238;2023-02-15T16:05:19;99166.50;;;11.55;54.69
21824;BME280;11074;48.596;9.238;2023-02-15T16:07:45;99161.63;;;11.29;55.43
21824;BME280;11074;48.596;9.238;2023-02-15T16:10:32;99166.88;;;11.24;55.48
21824;BME280;11074;48.596;9.238;2023-02-15T16:13:00;99171.53;;;11.17;57.26
21824;BME280;11074;48.596;9.238;2023-02-15T16:15:45;99163.59;;;10.99;57.06
21824;BME280;11074;48.596;9.238;2023-02-15T16:18:17;99164.03;;;11.07;57.75
21824;BME280;11074;48.596;9.238;2023-02-15T16:20:58;99167.56;;;10.66;59.03